Terminal Aerodrome Forecast
Issued by NWS Charleston, SC

Home | Current Version | Previous Version | Text Only | Print | Product List | Glossary On
Versions: 1 2 3 4 5 6 7 8 9 10 11 12 13 14 15
000
FTUS42 KCHS 012331
TAFSAV
TAF
KSAV 012331Z 0200/0224 17009KT P6SM SCT035 BKN080
     FM020600 19014G20KT P6SM SCT030 BKN050
     FM020900 21015G22KT 6SM -RA BKN020 OVC050
     FM021200 23016G25KT 5SM -RA OVC012
     FM021600 29020G28KT P6SM BKN050
     FM022200 30012KT P6SM SKC=

USA.gov is the U.S. government's official web portal to all federal, state and local government web resources and services.